Time;durP1;ratioP1;P1;durP2;ratioP2;P2;SDS_P1;SDS_P2;PMS_P1;PMS_P2;Temp;Humidity;BMP_temperature;BMP_pressure;BME280_temperature;BME280_humidity;BME280_pressure;Samples;Min_cycle;Max_cycle;Signal;HPM_P1;HPM_P2
2022/11/06 00:00:57;;;;;;;25.33;18.40;;;6.10;99.90;;;6.19;88.94;98397.66;4968516;28;20459;-70
2022/11/06 00:03:25;;;;;;;23.27;18.10;;;6.00;99.90;;;6.23;88.76;98389.09;4988311;28;20480;-71
2022/11/06 00:08:40;;;;;;;26.90;18.87;;;6.00;99.90;;;6.21;88.91;98388.44;4984541;28;20690;-71
2022/11/06 00:11:12;;;;;;;22.53;17.70;;;5.90;99.90;;;6.17;88.43;98388.97;4985154;28;20554;-70
2022/11/06 00:13:40;;;;;;;25.43;18.97;;;5.90;99.90;;;6.17;88.58;98400.53;4965397;28;20460;-70
2022/11/06 00:16:11;;;;;;;25.23;18.50;;;5.90;99.90;;;6.15;88.19;98389.16;4983631;28;20497;-72
2022/11/06 00:18:39;;;;;;;28.50;18.67;;;5.90;99.90;;;6.22;88.60;98384.75;4977477;28;20468;-70
2022/11/06 00:21:08;;;;;;;27.07;18.83;;;6.00;99.90;;;6.16;87.78;98379.25;4986936;28;20476;-71
2022/11/06 00:23:35;;;;;;;27.77;19.10;;;6.00;99.90;;;6.08;88.80;98381.00;4966505;28;20972;-70
2022/11/06 00:26:06;;;;;;;27.90;19.23;;;6.00;99.90;;;6.04;88.66;98382.34;4984355;28;20464;-72
2022/11/06 00:28:34;;;;;;;25.50;18.57;;;5.90;99.90;;;6.02;88.89;98380.84;4964009;28;20479;-71
2022/11/06 00:31:03;;;;;;;29.83;20.67;;;5.90;99.90;;;5.99;88.98;98373.97;4967615;28;20539;-71
2022/11/06 00:33:32;;;;;;;31.33;21.07;;;5.80;99.90;;;5.92;89.19;98370.34;4982291;28;20466;-72
2022/11/06 00:36:02;;;;;;;30.10;19.97;;;5.70;99.90;;;5.84;89.27;98376.56;4978453;28;20476;-71
2022/11/06 00:38:30;;;;;;;25.33;18.97;;;5.60;99.90;;;5.77;89.53;98373.75;4984855;28;20464;-70
2022/11/06 00:40:57;;;;;;;25.73;18.80;;;5.60;99.90;;;5.75;89.69;98380.31;4985069;28;20832;-71
2022/11/06 00:43:24;;;;;;;32.87;20.83;;;5.50;99.90;;;5.62;90.44;98386.25;4984115;28;20571;-72
2022/11/06 00:45:52;;;;;;;31.13;20.07;;;5.50;99.90;;;5.63;90.43;98386.03;4969380;28;20456;-70
2022/11/06 00:48:19;;;;;;;31.40;20.87;;;5.40;99.90;;;5.75;90.15;98374.94;4986117;28;20979;-71
2022/11/06 00:50:47;;;;;;;31.23;21.07;;;5.50;99.90;;;5.72;89.64;98386.84;4981743;28;20464;-70
2022/11/06 00:53:15;;;;;;;31.50;20.53;;;5.50;99.90;;;5.47;90.92;98378.94;4987327;28;20589;-70
2022/11/06 00:55:42;;;;;;;29.30;20.20;;;5.40;99.90;;;5.57;89.86;98388.59;4989176;28;20460;-70
2022/11/06 00:58:09;;;;;;;30.93;22.07;;;5.30;99.90;;;5.44;89.81;98379.25;4984606;28;20528;-71
2022/11/06 01:00:36;;;;;;;30.93;20.80;;;5.20;99.90;;;5.43;89.79;98379.44;4985967;28;20468;-71
2022/11/06 01:03:03;;;;;;;33.87;20.70;;;5.20;99.90;;;5.47;89.95;98386.13;4962760;28;20531;-70
2022/11/06 01:05:31;;;;;;;30.67;22.20;;;5.20;99.90;;;5.48;89.94;98383.28;4972195;28;20457;-70
2022/11/06 01:07:59;;;;;;;29.47;20.40;;;5.20;99.90;;;5.26;89.22;98360.75;4975873;28;20957;-71
2022/11/06 01:10:28;;;;;;;33.10;20.70;;;5.20;99.90;;;5.47;89.13;98391.47;4973368;28;20460;-70
2022/11/06 01:12:56;;;;;;;29.50;19.20;;;5.20;99.90;;;5.37;90.49;98389.00;4981571;28;20472;-72
2022/11/06 01:15:23;;;;;;;35.93;22.40;;;5.20;99.90;;;5.36;91.00;98387.34;4976288;28;20463;-71
2022/11/06 01:17:50;;;;;;;40.40;27.10;;;5.30;99.90;;;5.26;91.88;98390.22;4979332;28;20546;-71
2022/11/06 01:20:18;;;;;;;37.80;25.10;;;5.30;99.90;;;5.18;92.04;98390.22;4960570;28;20465;-70
2022/11/06 01:22:45;;;;;;;36.70;24.17;;;5.30;99.90;;;5.09;92.29;98376.03;4986135;28;20542;-71
2022/11/06 01:25:13;;;;;;;29.37;22.90;;;5.30;99.90;;;5.16;92.06;98382.38;4960891;28;20833;-72
2022/11/06 01:27:41;;;;;;;37.93;23.97;;;5.20;99.90;;;5.15;91.50;98395.94;4955113;28;20472;-71
2022/11/06 01:30:09;;;;;;;35.10;22.60;;;5.20;99.90;;;5.11;90.77;98384.72;4966717;28;20454;-71
2022/11/06 01:32:37;;;;;;;38.00;23.20;;;5.20;99.90;;;5.08;91.61;98390.41;4981763;28;20473;-69
2022/11/06 01:35:05;;;;;;;32.60;21.50;;;5.10;99.90;;;5.01;91.49;98389.44;4990600;28;20472;-71
2022/11/06 01:37:32;;;;;;;30.80;20.00;;;5.10;99.90;;;5.04;91.52;98399.81;4992055;28;20452;-70
2022/11/06 01:39:59;;;;;;;33.40;20.93;;;5.10;99.90;;;4.99;91.46;98386.94;4971778;28;20457;-71
2022/11/06 01:42:28;;;;;;;32.63;20.17;;;5.10;99.90;;;4.94;91.86;98394.66;4974599;28;20528;-70
2022/11/06 01:45:33;;;;;;;28.33;19.93;;;5.10;99.90;;;4.82;92.93;98386.97;4968788;28;20481;-70
2022/11/06 01:48:01;;;;;;;32.43;20.13;;;5.00;99.90;;;4.88;92.21;98387.28;4987778;28;20456;-73
2022/11/06 01:50:28;;;;;;;33.70;21.00;;;5.00;99.90;;;4.87;91.62;98380.25;4965753;28;20499;-71
2022/11/06 01:52:59;;;;;;;33.10;21.90;;;5.00;99.90;;;4.82;92.76;98381.59;4989025;28;20498;-71
2022/11/06 01:55:30;;;;;;;35.47;20.63;;;4.90;99.90;;;4.84;92.95;98384.09;4987797;28;20465;-72
2022/11/06 01:58:02;;;;;;;33.23;21.77;;;4.90;99.90;;;4.74;93.03;98378.91;4974764;28;20502;-72
2022/11/06 02:00:30;;;;;;;38.00;21.27;;;4.90;99.90;;;4.70;93.50;98384.78;4986687;28;20465;-70
2022/11/06 02:02:57;;;;;;;34.10;21.53;;;4.80;99.90;;;4.72;92.99;98380.94;4970529;28;20459;-71
2022/11/06 02:05:24;;;;;;;30.00;20.37;;;4.80;99.90;;;4.77;93.40;98378.56;4963508;28;20877;-71
2022/11/06 02:07:54;;;;;;;32.67;20.10;;;4.90;99.90;;;4.61;94.01;98362.53;4983776;28;20952;-71
2022/11/06 02:10:21;;;;;;;35.40;20.37;;;4.80;99.90;;;4.60;93.83;98356.34;4985976;28;20459;-72
2022/11/06 02:13:09;;;;;;;33.93;20.80;;;4.90;99.90;;;4.75;93.78;98374.41;4968596;28;20517;-72
2022/11/06 02:15:46;;;;;;;34.73;20.97;;;4.90;99.90;;;4.68;93.77;98363.56;4969883;28;20460;-72
2022/11/06 02:18:32;;;;;;;26.60;19.40;;;4.90;99.90;;;4.74;93.34;98373.56;4978134;28;20525;-70
2022/11/06 02:21:36;;;;;;;28.27;19.03;;;4.90;99.90;;;4.71;93.77;98363.19;4985720;28;20473;-72
2022/11/06 02:24:38;;;;;;;29.63;19.90;;;4.90;99.90;;;4.63;93.52;98347.16;4984883;28;20584;-71
2022/11/06 02:27:11;;;;;;;35.07;21.70;;;4.80;99.90;;;4.68;92.92;98353.66;4984532;28;20469;-70
2022/11/06 02:29:48;;;;;;;37.27;22.87;;;4.80;99.90;;;4.49;93.56;98354.88;4981906;28;20542;-69
2022/11/06 02:32:21;;;;;;;35.03;22.10;;;4.70;99.90;;;4.02;94.92;98296.66;4985428;28;20484;-71
2022/11/06 02:34:51;;;;;;;33.53;21.27;;;4.70;99.90;;;4.45;94.53;98369.56;4970629;28;20452;-71
2022/11/06 02:37:26;;;;;;;30.60;19.00;;;4.70;99.90;;;4.39;94.95;98360.38;4965122;28;20465;-72
2022/11/06 02:39:55;;;;;;;29.57;18.17;;;4.60;99.90;;;4.39;95.24;98364.91;4972225;28;20454;-71
2022/11/06 02:42:28;;;;;;;28.47;18.83;;;4.60;99.90;;;4.37;94.43;98356.22;4987296;28;20823;-72
2022/11/06 02:44:57;;;;;;;26.97;17.23;;;4.60;99.90;;;4.34;94.06;98368.06;4984432;28;20483;-69
2022/11/06 02:47:28;;;;;;;30.90;17.93;;;4.60;99.90;;;4.25;94.40;98369.09;4980582;28;20515;-70
2022/11/06 02:50:03;;;;;;;25.20;17.40;;;4.50;99.90;;;4.27;94.34;98371.56;4987854;28;20471;-71
2022/11/06 02:52:36;;;;;;;25.80;18.00;;;4.50;99.90;;;4.22;93.99;98362.22;4967358;28;20455;-71
2022/11/06 02:55:10;;;;;;;24.80;17.23;;;4.40;99.90;;;4.20;94.31;98363.38;4982968;28;20819;-70
2022/11/06 02:57:43;;;;;;;31.27;18.30;;;4.40;99.90;;;3.63;94.18;98282.09;4964056;28;20443;-70
2022/11/06 03:00:14;;;;;;;27.60;17.40;;;4.30;99.90;;;4.09;94.30;98356.53;4960449;28;20463;-70
2022/11/06 03:02:46;;;;;;;28.13;17.60;;;4.30;99.90;;;4.01;93.81;98335.09;4959555;28;20453;-72
2022/11/06 03:05:19;;;;;;;29.67;16.90;;;4.20;99.90;;;3.96;94.49;98343.66;4959779;28;20904;-69
2022/11/06 03:07:52;;;;;;;22.97;16.83;;;4.20;99.90;;;3.91;94.73;98352.16;4966520;28;20525;-71
2022/11/06 03:10:21;;;;;;;25.67;17.13;;;4.20;99.90;;;3.86;94.48;98349.13;4979310;28;20460;-70
2022/11/06 03:12:57;;;;;;;24.13;17.10;;;4.10;99.90;;;3.86;93.80;98345.63;4983307;28;20529;-70
2022/11/06 03:15:35;;;;;;;26.67;17.53;;;4.10;99.90;;;3.86;94.72;98349.13;4965628;28;20568;-71
2022/11/06 03:18:11;;;;;;;24.40;17.20;;;4.10;99.90;;;3.75;94.04;98320.03;4978801;28;20459;-70
2022/11/06 03:20:43;;;;;;;28.00;18.03;;;4.00;99.90;;;3.92;94.17;98343.13;4983881;28;20517;-70
2022/11/06 03:23:16;;;;;;;29.50;17.30;;;4.00;99.90;;;3.90;93.73;98334.44;4965484;28;20456;-70
2022/11/06 03:25:51;;;;;;;23.17;16.60;;;4.00;99.90;;;3.66;93.47;98320.00;4966592;28;20457;-70
2022/11/06 03:28:30;;;;;;;26.57;17.03;;;4.00;99.90;;;3.68;94.27;98328.69;4983691;28;20475;-70
2022/11/06 03:31:03;;;;;;;25.97;16.40;;;3.90;99.90;;;3.66;95.65;98330.72;4983381;28;20464;-70
2022/11/06 03:33:35;;;;;;;27.17;17.17;;;4.00;99.90;;;3.66;94.77;98324.53;4965247;28;20520;-70
2022/11/06 03:36:10;;;;;;;28.40;17.87;;;3.90;99.90;;;3.53;94.93;98316.97;4962485;28;20970;-70
2022/11/06 03:38:41;;;;;;;23.90;16.97;;;3.80;99.90;;;3.00;94.17;98230.84;4986322;28;20458;-71
2022/11/06 03:41:16;;;;;;;28.47;17.20;;;3.80;99.90;;;3.60;94.37;98328.69;4983520;28;20476;-71
2022/11/06 03:43:49;;;;;;;22.23;16.90;;;3.80;99.90;;;3.66;93.63;98322.69;4981841;28;20481;-69
2022/11/06 03:46:23;;;;;;;26.67;17.40;;;3.80;99.90;;;3.59;94.39;98313.66;4982050;28;20464;-70
2022/11/06 03:48:57;;;;;;;27.33;17.03;;;3.80;99.90;;;3.45;94.99;98322.31;4962397;28;20481;-72
2022/11/06 03:51:31;;;;;;;26.60;17.80;;;3.80;99.90;;;3.40;95.86;98315.59;4979840;28;20461;-71
2022/11/06 03:54:03;;;;;;;26.70;17.70;;;3.80;99.90;;;3.50;95.25;98320.84;4978691;28;20522;-70
2022/11/06 03:56:38;;;;;;;28.43;17.90;;;3.70;99.90;;;3.51;94.68;98311.81;4982838;28;21096;-72
2022/11/06 03:59:08;;;;;;;26.17;16.23;;;3.70;99.90;;;3.34;94.81;98296.75;4985717;28;20455;-71
2022/11/06 04:01:43;;;;;;;28.70;17.57;;;3.60;99.90;;;3.33;94.69;98308.41;4983781;28;20521;-71
2022/11/06 04:04:16;;;;;;;28.60;17.00;;;3.60;99.90;;;3.46;95.00;98305.28;4980655;28;20576;-70
2022/11/06 04:06:49;;;;;;;29.30;17.83;;;3.60;99.90;;;3.40;94.58;98301.41;4987031;28;20460;-71
2022/11/06 04:14:56;;;;;;;27.93;16.17;;;3.50;99.90;;;3.24;95.14;98304.84;4980396;28;20460;-71
2022/11/06 04:17:29;;;;;;;31.00;18.00;;;3.60;99.90;;;3.23;94.94;98296.03;4985908;28;20960;-70
2022/11/06 04:20:01;;;;;;;26.33;17.47;;;3.50;99.90;;;3.25;94.50;98299.38;4984905;28;20541;-70
2022/11/06 04:22:45;;;;;;;32.43;18.87;;;3.50;99.90;;;3.08;94.78;98298.47;4974678;28;20779;-70
2022/11/06 04:28:31;;;;;;;28.33;17.07;;;3.40;99.90;;;3.11;95.13;98306.16;4985253;28;20478;-71
2022/11/06 04:31:12;;;;;;;27.27;16.17;;;3.40;99.90;;;3.18;93.70;98313.53;4986173;28;20471;-72
2022/11/06 04:33:49;;;;;;;30.73;17.50;;;3.40;99.90;;;2.58;94.80;98233.38;4987098;28;20456;-71
2022/11/06 04:36:24;;;;;;;23.10;14.93;;;3.40;99.90;;;3.07;94.74;98315.47;4984438;28;20475;-72
2022/11/06 04:38:59;;;;;;;26.43;16.13;;;3.40;99.90;;;2.99;95.77;98307.44;4986688;28;20466;-71
2022/11/06 04:41:34;;;;;;;27.30;15.97;;;3.30;99.90;;;2.97;94.56;98312.13;4983512;28;20501;-71
2022/11/06 04:44:07;;;;;;;25.23;15.73;;;3.30;99.90;;;2.90;95.53;98303.91;4988937;28;20993;-71
2022/11/06 04:46:43;;;;;;;23.13;16.13;;;3.30;99.90;;;2.88;94.91;98307.72;4987707;28;20473;-72
2022/11/06 04:49:12;;;;;;;24.40;16.57;;;3.20;99.90;;;2.94;95.07;98302.56;4959817;28;20514;-71
2022/11/06 04:51:40;;;;;;;20.07;14.57;;;3.20;99.90;;;2.98;94.71;98303.09;4979919;28;20471;-70
2022/11/06 04:54:10;;;;;;;26.17;17.40;;;3.20;99.90;;;2.82;94.86;98303.84;4984326;28;20467;-70
2022/11/06 04:56:37;;;;;;;26.30;16.17;;;3.10;99.90;;;2.86;94.87;98299.84;4983171;28;20535;-71
2022/11/06 04:59:05;;;;;;;23.53;15.57;;;3.10;99.90;;;2.75;94.39;98308.97;4965411;28;20898;-71
2022/11/06 05:01:33;;;;;;;24.23;15.57;;;3.00;99.90;;;2.65;95.46;98297.56;4981479;28;20462;-71
2022/11/06 05:04:01;;;;;;;24.70;14.80;;;3.00;99.90;;;2.55;95.31;98277.19;4989010;28;21031;-71
2022/11/06 05:06:29;;;;;;;23.20;14.70;;;3.00;99.90;;;2.59;96.19;98295.53;4963102;28;20479;-70
2022/11/06 05:08:56;;;;;;;27.77;15.23;;;2.90;99.90;;;2.48;96.09;98278.78;4987110;28;20544;-69
2022/11/06 05:11:23;;;;;;;27.63;15.40;;;2.90;99.90;;;2.58;96.15;98294.72;4964925;28;20553;-71
2022/11/06 05:13:51;;;;;;;27.57;14.17;;;2.90;99.90;;;2.59;95.88;98287.53;4959472;28;20466;-70
2022/11/06 05:16:18;;;;;;;22.03;15.07;;;2.90;99.90;;;2.55;95.81;98287.84;4986293;28;20517;-71
2022/11/06 05:18:45;;;;;;;24.77;14.67;;;2.90;99.90;;;2.48;95.95;98285.97;4957606;28;21020;-70
2022/11/06 05:24:14;;;;;;;21.00;13.07;;;2.90;99.90;;;2.44;96.33;98285.44;4910108;29;20493;-72
2022/11/06 05:26:41;;;;;;;19.47;13.10;;;2.80;99.90;;;2.52;95.67;98277.50;4911733;29;20506;-70
2022/11/06 05:29:08;;;;;;;20.03;13.57;;;2.80;99.90;;;2.49;95.89;98272.47;4944004;28;20472;-70
2022/11/06 05:31:36;;;;;;;23.73;13.67;;;2.80;99.90;;;2.52;94.99;98260.66;4977938;28;20460;-71
2022/11/06 05:34:03;;;;;;;20.77;13.30;;;2.80;99.90;;;2.59;95.06;98269.72;4991445;28;20455;-72
2022/11/06 05:36:31;;;;;;;18.20;13.10;;;2.80;99.90;;;2.52;95.20;98261.50;4991155;28;20459;-71
2022/11/06 05:38:59;;;;;;;22.70;13.83;;;2.80;99.90;;;2.32;95.34;98246.69;4981925;28;20473;-71
2022/11/06 05:41:26;;;;;;;22.80;14.60;;;2.80;99.90;;;2.24;96.55;98245.66;4977082;28;21104;-71
2022/11/06 05:43:53;;;;;;;23.80;14.20;;;2.70;99.90;;;2.33;96.62;98249.22;4985420;28;20475;-69
2022/11/06 05:46:20;;;;;;;22.67;14.07;;;2.70;99.90;;;2.35;96.20;98254.38;4982862;28;20459;-70
2022/11/06 05:48:48;;;;;;;26.17;15.20;;;2.60;99.90;;;2.41;95.82;98253.75;4987946;28;20466;-70
2022/11/06 05:51:15;;;;;;;22.97;14.53;;;2.60;99.90;;;2.37;95.65;98253.22;4983442;28;20519;-71
2022/11/06 05:53:44;;;;;;;30.40;15.23;;;2.60;99.90;;;2.18;96.93;98234.78;4973490;28;20540;-70
2022/11/06 05:56:11;;;;;;;27.60;14.13;;;2.60;99.90;;;2.31;96.52;98242.34;4984096;28;20470;-70
2022/11/06 05:58:38;;;;;;;23.47;14.30;;;2.60;99.90;;;2.28;96.08;98242.69;4968188;28;20805;-68
2022/11/06 06:01:05;;;;;;;22.97;13.50;;;2.60;99.90;;;2.34;95.57;98255.38;4988690;28;20470;-70
2022/11/06 06:03:32;;;;;;;24.83;14.47;;;2.60;99.90;;;2.24;96.22;98240.31;4966260;28;20537;-70
2022/11/06 06:05:59;;;;;;;26.33;13.87;;;2.60;99.90;;;2.15;96.99;98227.94;4972809;28;20493;-72
2022/11/06 06:08:27;;;;;;;21.40;14.50;;;2.60;99.90;;;2.37;96.35;98241.75;4973258;28;20455;-70
2022/11/06 06:10:55;;;;;;;22.13;14.27;;;2.60;99.90;;;2.14;95.92;98209.44;4983310;28;20460;-70
2022/11/06 06:13:22;;;;;;;25.07;15.00;;;2.60;99.90;;;2.25;96.84;98238.47;4964475;28;20478;-68
2022/11/06 06:15:49;;;;;;;33.00;16.43;;;2.60;99.90;;;2.12;97.29;98220.25;4977936;28;20464;-69
2022/11/06 06:18:17;;;;;;;33.10;14.63;;;2.60;99.90;;;2.22;97.53;98238.81;4982542;28;20459;-69
2022/11/06 06:20:44;;;;;;;25.23;14.37;;;2.60;99.90;;;2.36;97.13;98232.06;4960075;28;20463;-68
2022/11/06 06:23:11;;;;;;;24.20;15.43;;;2.70;99.90;;;2.40;96.49;98238.75;4963149;28;20468;-69
2022/11/06 06:25:39;;;;;;;21.23;13.63;;;2.60;99.90;;;2.40;96.15;98230.75;4982392;28;20478;-68
2022/11/06 06:28:07;;;;;;;28.00;16.40;;;2.70;99.90;;;2.50;95.68;98251.97;4986773;28;21021;-69
2022/11/06 06:30:35;;;;;;;23.67;14.77;;;2.70;99.90;;;2.57;95.00;98257.53;4989443;28;20449;-69
2022/11/06 06:33:05;;;;;;;27.97;15.33;;;2.70;99.90;;;2.43;95.17;98246.44;4987695;28;20561;-69
2022/11/06 06:35:33;;;;;;;26.07;15.50;;;2.70;99.90;;;2.50;94.89;98246.66;4977910;28;20471;-69
2022/11/06 06:38:00;;;;;;;22.17;13.30;;;2.70;99.90;;;2.47;94.74;98247.78;4978757;28;20462;-68
2022/11/06 06:40:28;;;;;;;22.03;14.10;;;2.70;99.90;;;2.54;94.62;98259.50;4960636;28;21315;-70
2022/11/06 06:42:56;;;;;;;18.93;13.13;;;2.70;99.90;;;2.71;93.92;98278.28;4979162;28;20467;-67
2022/11/06 06:45:26;;;;;;;21.33;13.80;;;2.70;99.90;;;2.75;93.19;98273.47;4963544;28;20486;-70
2022/11/06 06:47:53;;;;;;;21.07;14.97;;;2.70;99.90;;;2.72;93.74;98282.63;4980202;28;20487;-71
2022/11/06 06:50:20;;;;;;;21.07;13.50;;;2.80;99.90;;;2.69;93.50;98282.94;4967009;28;20463;-68
2022/11/06 06:52:48;;;;;;;19.10;12.83;;;2.80;99.90;;;2.74;94.02;98280.63;4969492;28;20466;-71
2022/11/06 06:55:15;;;;;;;20.27;12.90;;;2.90;99.90;;;2.76;94.05;98293.81;4980786;28;20458;-66
2022/11/06 06:57:43;;;;;;;18.50;12.90;;;3.00;99.90;;;2.71;93.78;98298.78;4983070;28;20476;-67
2022/11/06 07:00:11;;;;;;;18.00;12.60;;;2.90;99.90;;;2.90;93.42;98324.41;4969396;28;20460;-70
2022/11/06 07:02:39;;;;;;;18.53;12.03;;;3.00;99.90;;;2.46;93.49;98242.63;4977319;28;20555;-68
2022/11/06 07:05:07;;;;;;;17.93;13.37;;;3.00;99.90;;;3.10;93.15;98339.19;4975372;28;20493;-68
2022/11/06 07:07:34;;;;;;;19.40;12.60;;;3.10;99.90;;;3.08;92.69;98335.00;4987822;28;20482;-68
2022/11/06 07:10:01;;;;;;;18.67;12.47;;;3.20;99.90;;;3.09;93.10;98334.84;4979528;28;20468;-68
2022/11/06 07:12:29;;;;;;;18.00;13.10;;;3.30;99.90;;;3.01;94.11;98321.47;4985176;28;20554;-67
2022/11/06 07:14:56;;;;;;;20.40;14.37;;;3.30;99.90;;;3.16;93.66;98319.00;4984961;28;20466;-68
2022/11/06 07:17:23;;;;;;;19.97;13.30;;;3.30;99.90;;;3.14;93.62;98312.19;4975597;28;20468;-68
2022/11/06 07:19:52;;;;;;;18.27;12.87;;;3.40;99.90;;;3.09;93.56;98308.13;4963663;28;20512;-68
2022/11/06 07:22:19;;;;;;;19.20;14.07;;;3.40;99.90;;;3.09;93.94;98297.47;4980347;28;20471;-67
2022/11/06 07:24:46;;;;;;;20.93;13.50;;;3.40;99.90;;;3.28;93.44;98284.88;4977503;28;20547;-67
2022/11/06 07:27:13;;;;;;;17.40;11.87;;;3.50;99.90;;;3.35;94.25;98287.72;4975824;28;20514;-67
2022/11/06 07:29:40;;;;;;;17.73;12.40;;;3.50;99.90;;;3.18;93.23;98281.47;4986052;28;20473;-68
2022/11/06 07:32:08;;;;;;;16.83;12.73;;;3.50;99.90;;;3.43;92.91;98276.22;4979040;28;20527;-68
2022/11/06 07:34:37;;;;;;;17.60;12.60;;;3.60;99.90;;;3.52;93.33;98277.91;4964289;28;20470;-68
2022/11/06 07:37:06;;;;;;;16.27;11.60;;;3.70;99.90;;;3.18;94.30;98286.81;4981912;28;20470;-68
2022/11/06 07:39:34;;;;;;;17.20;12.33;;;3.60;99.90;;;3.22;94.07;98288.16;4979957;28;20471;-67
2022/11/06 07:42:01;;;;;;;16.90;12.83;;;3.60;99.90;;;3.46;94.38;98273.22;4961120;28;20498;-66
2022/11/06 07:44:28;;;;;;;18.73;12.40;;;3.70;99.90;;;3.18;94.11;98273.47;4961842;28;20569;-67
2022/11/06 07:46:55;;;;;;;18.50;11.83;;;3.60;99.90;;;3.28;94.54;98276.84;4964519;28;20516;-66
2022/11/06 07:49:22;;;;;;;17.97;11.20;;;3.70;99.90;;;3.31;95.15;98279.19;4984272;28;21178;-67
2022/11/06 07:51:50;;;;;;;15.27;12.07;;;3.70;99.90;;;3.58;94.19;98279.09;4983312;28;20525;-67
2022/11/06 07:54:18;;;;;;;16.50;11.60;;;3.80;99.90;;;3.74;93.73;98280.97;4983886;28;20836;-68
2022/11/06 07:56:45;;;;;;;20.27;12.57;;;3.90;99.90;;;3.56;93.39;98281.09;4983214;28;20478;-67
2022/11/06 07:59:12;;;;;;;18.27;11.67;;;4.00;99.90;;;3.63;94.59;98274.91;4985301;28;20474;-68
2022/11/06 08:01:40;;;;;;;16.17;12.60;;;3.90;99.90;;;3.78;93.76;98271.59;4986528;28;20467;-68
2022/11/06 08:04:07;;;;;;;20.00;14.60;;;4.00;99.90;;;3.99;92.83;98259.56;4982806;28;21085;-68
2022/11/06 08:06:34;;;;;;;17.07;12.40;;;4.20;99.90;;;4.10;92.24;98265.44;4970860;28;20479;-68
2022/11/06 08:09:06;;;;;;;19.40;11.90;;;4.30;99.90;;;3.92;92.85;98268.28;4966588;28;20474;-67
2022/11/06 08:11:35;;;;;;;18.27;12.57;;;4.30;99.90;;;3.81;93.80;98260.56;4963017;28;20467;-69
2022/11/06 08:14:03;;;;;;;19.53;12.67;;;4.20;99.90;;;4.06;93.63;98260.59;4984030;28;20532;-68
2022/11/06 08:16:31;;;;;;;18.80;12.40;;;4.30;99.90;;;4.14;93.07;98255.22;4978670;28;20519;-67
2022/11/06 08:18:58;;;;;;;20.23;12.30;;;4.40;99.90;;;4.16;92.56;98255.88;4979872;28;20518;-67
2022/11/06 08:21:25;;;;;;;18.80;12.33;;;4.50;99.90;;;4.29;93.16;98259.88;4986342;28;20466;-67
2022/11/06 08:23:53;;;;;;;18.00;13.37;;;4.50;99.90;;;4.35;92.08;98243.19;4985758;28;20468;-68
2022/11/06 08:26:20;;;;;;;18.57;13.33;;;4.60;99.90;;;4.10;92.39;98237.84;4967276;28;20494;-67
2022/11/06 08:28:48;;;;;;;21.60;14.30;;;4.60;99.90;;;4.34;92.72;98236.16;4981342;28;20467;-68
2022/11/06 08:31:15;;;;;;;14.87;12.10;;;4.60;99.90;;;4.59;91.71;98225.38;4966931;28;20542;-68
2022/11/06 08:33:43;;;;;;;17.00;12.47;;;4.90;99.90;;;4.98;91.05;98213.88;4969476;28;20455;-68
2022/11/06 08:36:10;;;;;;;17.00;12.43;;;5.00;99.90;;;4.48;91.06;98207.84;4967982;28;20474;-68
2022/11/06 08:38:38;;;;;;;15.53;11.70;;;4.90;99.90;;;4.88;92.13;98207.88;4978696;28;20463;-68
2022/11/06 08:41:06;;;;;;;15.67;11.60;;;5.00;99.90;;;5.06;90.37;98213.81;4966250;28;20509;-67
2022/11/06 08:43:33;;;;;;;17.90;13.17;;;5.20;99.90;;;5.36;89.23;98210.47;4984345;28;21235;-75
2022/11/06 08:46:03;;;;;;;19.30;12.43;;;5.40;99.90;;;5.54;87.57;98215.56;4982822;28;20482;-74
2022/11/06 08:48:30;;;;;;;22.43;11.30;;;5.60;99.90;;;5.04;89.52;98207.81;4979941;28;20581;-68
2022/11/06 08:50:57;;;;;;;17.03;11.13;;;5.40;99.90;;;5.30;90.37;98206.66;4984491;28;21035;-69
2022/11/06 08:53:25;;;;;;;17.97;12.33;;;5.50;99.90;;;5.82;88.39;98204.28;4983160;28;20538;-74
2022/11/06 08:55:52;;;;;;;20.53;12.80;;;5.80;99.90;;;6.10;87.43;98206.41;4965939;28;20525;-70
2022/11/06 08:58:19;;;;;;;18.53;11.30;;;6.00;99.90;;;6.05;87.20;98203.44;4980823;28;20471;-71
2022/11/06 09:00:46;;;;;;;19.00;13.10;;;6.20;98.50;;;5.24;86.94;98113.63;4978317;28;20563;-67
2022/11/06 09:03:17;;;;;;;18.13;12.67;;;6.10;96.50;;;5.62;88.14;98186.00;4982280;28;20472;-70
2022/11/06 09:05:46;;;;;;;15.27;11.20;;;6.00;97.90;;;5.76;87.92;98194.28;4977089;28;20487;-66
2022/11/06 09:08:14;;;;;;;19.37;12.73;;;6.00;98.40;;;6.01;87.16;98186.03;4977338;28;20739;-67
2022/11/06 09:10:43;;;;;;;16.10;12.03;;;6.30;96.80;;;6.34;86.95;98188.41;4980409;28;20582;-67
2022/11/06 09:13:11;;;;;;;19.27;12.77;;;6.40;97.80;;;6.41;86.03;98175.91;4981579;28;20472;-67
2022/11/06 09:15:38;;;;;;;14.53;11.70;;;6.60;96.30;;;6.20;86.71;98164.06;4984130;28;20495;-66
2022/11/06 09:18:05;;;;;;;16.87;11.90;;;6.50;96.30;;;6.28;87.05;98164.97;4984623;28;20836;-66
2022/11/06 09:20:35;;;;;;;17.00;12.67;;;6.40;97.30;;;7.04;87.51;98159.34;4979654;28;20460;-66
2022/11/06 09:23:04;;;;;;;21.13;13.30;;;6.90;99.90;;;6.59;85.78;98155.91;4979942;28;21003;-66
2022/11/06 09:25:32;;;;;;;19.63;13.90;;;6.80;94.60;;;6.86;84.97;98156.25;4979983;28;20476;-68
2022/11/06 09:28:00;;;;;;;18.20;13.93;;;7.00;94.70;;;7.43;85.41;98134.97;4987862;28;20530;-67
2022/11/06 09:30:29;;;;;;;21.87;14.23;;;7.30;97.80;;;7.07;81.94;98123.22;4980395;28;20567;-67
2022/11/06 09:32:59;;;;;;;19.00;13.67;;;7.30;92.70;;;7.30;83.04;98152.63;4984150;28;20464;-66
2022/11/06 09:35:28;;;;;;;17.90;13.07;;;7.30;93.20;;;7.65;81.66;98141.97;4962782;28;20575;-66
2022/11/06 09:38:02;;;;;;;21.10;14.23;;;7.60;92.30;;;7.36;82.17;98135.75;4979068;28;20457;-67
2022/11/06 09:40:34;;;;;;;16.60;13.93;;;7.50;92.00;;;6.78;84.18;98119.59;4963461;28;20457;-67
2022/11/06 09:43:12;;;;;;;19.10;14.07;;;7.20;92.10;;;7.10;83.72;98114.78;4959199;28;20468;-67
2022/11/06 09:45:41;;;;;;;19.80;13.83;;;7.20;93.60;;;6.87;83.40;98110.41;4956480;28;21004;-66
2022/11/06 09:48:18;;;;;;;18.07;14.43;;;7.20;92.50;;;6.85;82.50;98119.69;4978445;28;20461;-66
2022/11/06 09:50:52;;;;;;;20.03;14.53;;;7.10;91.80;;;7.02;81.88;98098.81;4980107;28;20469;-67
2022/11/06 09:53:28;;;;;;;17.10;13.20;;;7.20;91.90;;;7.17;81.28;98099.56;4986808;28;20549;-66
2022/11/06 09:55:57;;;;;;;18.43;14.30;;;7.30;91.60;;;7.43;80.01;98106.25;4976870;28;20472;-66
2022/11/06 09:58:31;;;;;;;15.70;12.97;;;7.50;90.80;;;7.34;80.86;98110.88;4968506;28;20465;-66
2022/11/06 10:01:04;;;;;;;16.73;13.77;;;7.60;90.80;;;7.73;79.15;98100.66;4971884;28;20456;-67
2022/11/06 10:03:40;;;;;;;18.10;13.87;;;7.70;90.40;;;7.56;80.55;98092.06;4981232;28;20538;-71
2022/11/06 10:06:07;;;;;;;18.20;12.07;;;7.70;90.60;;;7.65;79.79;98100.81;4962570;28;20567;-67
2022/11/06 10:08:36;;;;;;;15.57;11.80;;;7.80;90.00;;;7.90;77.82;98087.75;4962041;28;20460;-68
2022/11/06 10:11:07;;;;;;;15.23;12.50;;;8.00;88.80;;;7.52;79.28;98096.19;4974515;28;20453;-66
2022/11/06 10:13:53;;;;;;;16.03;12.33;;;7.90;88.50;;;7.19;81.21;98094.00;4962925;28;20966;-66
2022/11/06 10:16:30;;;;;;;15.83;11.87;;;7.60;90.00;;;7.36;81.00;98095.41;4980068;28;20552;-67
2022/11/06 10:19:10;;;;;;;15.20;11.67;;;7.60;90.90;;;7.75;79.23;98089.72;4982675;28;20460;-67
2022/11/06 10:21:48;;;;;;;15.33;11.83;;;7.80;90.10;;;7.85;79.03;98090.22;4986758;28;20467;-66
2022/11/06 10:24:23;;;;;;;14.57;11.70;;;7.90;89.40;;;7.76;78.54;98097.59;4981021;28;20631;-67
2022/11/06 10:26:55;;;;;;;15.50;12.40;;;7.90;88.90;;;7.82;78.45;98096.00;4983168;28;20481;-67
2022/11/06 10:29:43;;;;;;;15.80;11.53;;;7.90;88.90;;;7.61;78.54;98089.63;4969873;28;20452;-69
2022/11/06 10:32:45;;;;;;;12.40;11.10;;;8.00;87.80;;;7.41;78.37;98083.25;4963361;28;20552;-66
2022/11/06 10:35:20;;;;;;;14.70;12.60;;;7.80;87.80;;;7.63;78.45;98073.31;4960522;28;20457;-67
2022/11/06 10:37:53;;;;;;;13.33;11.70;;;7.80;88.20;;;7.97;76.28;98070.84;4968587;28;20577;-68
2022/11/06 10:40:27;;;;;;;15.97;12.73;;;8.00;86.60;;;7.98;75.77;98056.38;4962005;28;20463;-67
2022/11/06 10:43:09;;;;;;;16.23;12.40;;;8.10;86.50;;;7.76;76.85;98054.56;4988086;28;20472;-67
2022/11/06 10:45:41;;;;;;;17.30;13.37;;;8.00;86.60;;;7.72;77.33;98053.28;4984939;28;20995;-67
2022/11/06 10:48:21;;;;;;;14.30;11.90;;;8.00;86.40;;;8.05;76.81;98063.44;4962149;28;20535;-66